Time;durP1;ratioP1;P1;durP2;ratioP2;P2;SDS_P1;SDS_P2;PMS_P1;PMS_P2;Temp;Humidity;BMP_temperature;BMP_pressure;BME280_temperature;BME280_humidity;BME280_pressure;Samples;Min_cycle;Max_cycle;Signal;HPM_P1;HPM_P2
2023/03/26 00:01:20;;;;;;;0.40;0.32;;;16.40;71.60;;;;;;5053515;28;20075;-72
2023/03/26 00:03:45;;;;;;;0.30;0.22;;;16.40;71.60;;;;;;5053466;28;20025;-72
2023/03/26 00:06:15;;;;;;;0.88;0.40;;;16.40;71.50;;;;;;5053455;28;20035;-72
2023/03/26 00:08:42;;;;;;;0.20;0.20;;;16.40;71.60;;;;;;5053467;28;20101;-72
2023/03/26 00:11:08;;;;;;;0.47;0.32;;;16.40;71.50;;;;;;5053412;28;20561;-72
2023/03/26 00:13:34;;;;;;;1.08;0.30;;;16.40;71.50;;;;;;5053325;28;20042;-72
2023/03/26 00:16:00;;;;;;;0.85;0.30;;;16.40;71.50;;;;;;5054285;28;20143;-72
2023/03/26 00:18:33;;;;;;;0.40;0.40;;;16.40;71.50;;;;;;5053093;28;20119;-72
2023/03/26 00:21:00;;;;;;;0.47;0.40;;;16.40;71.50;;;;;;5053518;28;20021;-72
2023/03/26 00:23:27;;;;;;;0.85;0.45;;;16.30;71.40;;;;;;5053293;28;20027;-72
2023/03/26 00:25:53;;;;;;;0.90;0.35;;;16.40;71.50;;;;;;5054494;28;20029;-72
2023/03/26 00:28:21;;;;;;;1.23;0.40;;;16.40;71.50;;;;;;5052942;28;20392;-72
2023/03/26 00:30:59;;;;;;;1.95;0.60;;;16.30;71.40;;;;;;5053456;28;20095;-72
2023/03/26 00:33:25;;;;;;;1.35;0.55;;;16.40;71.50;;;;;;5052874;28;20021;-72
2023/03/26 00:35:52;;;;;;;1.55;0.75;;;16.40;71.50;;;;;;5053861;28;20090;-72
2023/03/26 00:38:19;;;;;;;0.80;0.30;;;16.30;71.40;;;;;;5036398;28;20552;-72
2023/03/26 00:40:46;;;;;;;1.15;0.40;;;16.30;71.40;;;;;;5054196;28;20106;-72
2023/03/26 00:43:19;;;;;;;0.88;0.65;;;16.30;71.40;;;;;;5052687;28;20100;-72
2023/03/26 00:45:49;;;;;;;0.52;0.40;;;16.30;71.40;;;;;;5052871;28;20086;-72
2023/03/26 00:48:15;;;;;;;1.23;0.40;;;16.30;71.40;;;;;;5052366;28;20029;-72
2023/03/26 00:50:41;;;;;;;0.73;0.40;;;16.30;71.40;;;;;;5053935;28;20052;-72
2023/03/26 00:53:07;;;;;;;0.95;0.40;;;16.30;71.40;;;;;;5068903;28;20634;-72
2023/03/26 00:55:34;;;;;;;2.63;0.60;;;16.30;71.40;;;;;;5086258;28;20031;-72
2023/03/26 00:58:00;;;;;;;1.02;0.50;;;16.30;71.40;;;;;;5068858;28;20067;-72
2023/03/26 01:00:33;;;;;;;2.10;0.50;;;16.30;71.40;;;;;;5068977;28;20021;-72
2023/03/26 01:02:59;;;;;;;1.58;0.50;;;16.30;71.40;;;;;;5068432;28;20024;-72
2023/03/26 01:05:51;;;;;;;2.72;0.55;;;16.30;71.40;;;;;;5053752;28;20040;-72
2023/03/26 01:08:29;;;;;;;0.90;0.30;;;16.30;71.40;;;;;;5084805;28;20029;-72
2023/03/26 01:11:01;;;;;;;1.05;0.50;;;16.30;71.40;;;;;;5053397;28;20040;-72
2023/03/26 01:13:29;;;;;;;0.80;0.43;;;16.30;71.40;;;;;;5064428;28;20028;-72
2023/03/26 01:15:56;;;;;;;1.02;0.47;;;16.30;71.40;;;;;;5048136;28;20080;-72
2023/03/26 01:18:25;;;;;;;1.17;0.52;;;16.30;71.40;;;;;;5065145;28;20386;-72
2023/03/26 01:20:57;;;;;;;1.02;0.38;;;16.30;71.40;;;;;;5064583;28;20026;-72
2023/03/26 01:23:23;;;;;;;1.23;0.35;;;16.30;71.40;;;;;;5048019;28;20096;-72
2023/03/26 01:26:04;;;;;;;0.55;0.50;;;16.30;71.40;;;;;;5048551;28;20105;-72
2023/03/26 01:28:30;;;;;;;3.28;0.43;;;16.20;71.40;;;;;;5046432;28;20029;-72
2023/03/26 01:31:03;;;;;;;1.55;0.45;;;16.30;71.50;;;;;;5048263;28;20068;-72
2023/03/26 01:34:02;;;;;;;1.48;0.47;;;16.30;71.50;;;;;;5047973;28;20440;-72
2023/03/26 01:36:37;;;;;;;0.90;0.40;;;16.30;71.50;;;;;;5064955;28;20040;-72
2023/03/26 01:39:24;;;;;;;0.88;0.40;;;16.30;71.50;;;;;;5047530;28;20014;-72
2023/03/26 01:41:56;;;;;;;2.08;0.47;;;16.20;71.40;;;;;;5032863;28;20032;-72
2023/03/26 01:44:21;;;;;;;2.30;0.40;;;16.30;71.50;;;;;;5064929;28;20040;-72
2023/03/26 01:46:47;;;;;;;1.55;0.50;;;16.30;71.50;;;;;;5032726;28;20560;-72
2023/03/26 01:49:13;;;;;;;1.40;0.60;;;16.30;71.50;;;;;;5078936;28;20033;-72
2023/03/26 01:51:40;;;;;;;1.42;0.50;;;16.20;71.50;;;;;;5051312;28;20041;-72
2023/03/26 01:54:08;;;;;;;1.17;0.60;;;16.20;71.50;;;;;;5051488;28;20024;-72
2023/03/26 01:56:44;;;;;;;1.65;0.60;;;16.20;71.50;;;;;;5034670;28;20439;-72
2023/03/26 01:59:22;;;;;;;1.33;0.50;;;16.20;71.50;;;;;;5051396;28;20027;-72
2023/03/26 02:02:09;;;;;;;0.82;0.40;;;16.20;71.50;;;;;;5052332;28;20083;-72
2023/03/26 02:04:53;;;;;;;0.90;0.40;;;16.20;71.50;;;;;;5051271;28;20378;-72
2023/03/26 02:07:24;;;;;;;1.88;0.65;;;16.20;71.50;;;;;;5052490;28;20025;-72
2023/03/26 02:09:52;;;;;;;1.45;0.50;;;16.20;71.60;;;;;;5051205;28;20045;-72
2023/03/26 02:12:18;;;;;;;3.00;0.52;;;16.20;71.50;;;;;;5051152;28;20021;-71
2023/03/26 02:14:44;;;;;;;2.97;0.55;;;16.20;71.60;;;;;;5051096;28;20053;-72
2023/03/26 02:17:10;;;;;;;0.80;0.40;;;16.20;71.60;;;;;;5051145;28;20489;-72
2023/03/26 02:19:41;;;;;;;0.80;0.30;;;16.20;71.60;;;;;;5051219;28;20029;-72
2023/03/26 02:22:10;;;;;;;1.15;0.40;;;16.20;71.60;;;;;;5051308;28;20025;-72
2023/03/26 02:24:37;;;;;;;0.75;0.50;;;16.20;71.60;;;;;;5052151;28;20021;-72
2023/03/26 02:27:06;;;;;;;1.27;0.40;;;16.20;72.60;;;;;;5051044;28;20039;-72
2023/03/26 02:29:36;;;;;;;1.55;0.40;;;16.20;71.60;;;;;;5050862;28;20025;-72
2023/03/26 02:32:04;;;;;;;1.15;0.55;;;16.20;71.60;;;;;;5051140;28;20047;-72
2023/03/26 02:34:30;;;;;;;0.63;0.43;;;16.20;71.60;;;;;;5052068;28;20021;-72
2023/03/26 02:36:56;;;;;;;1.88;0.85;;;16.20;71.60;;;;;;5051053;28;20051;-72
2023/03/26 02:39:22;;;;;;;2.75;0.55;;;16.20;71.60;;;;;;5052414;28;20021;-72
2023/03/26 02:41:48;;;;;;;0.85;0.55;;;16.10;71.60;;;;;;5056287;28;20524;-72
2023/03/26 02:44:13;;;;;;;1.52;0.40;;;16.20;71.60;;;;;;5054974;28;20048;-72
2023/03/26 02:46:39;;;;;;;1.23;0.47;;;16.20;71.60;;;;;;5054824;28;20024;-72
2023/03/26 02:49:05;;;;;;;1.58;0.50;;;16.20;71.60;;;;;;5054808;28;20033;-72
2023/03/26 02:51:33;;;;;;;1.98;0.45;;;16.20;71.60;;;;;;5055900;28;20055;-72
2023/03/26 02:54:00;;;;;;;0.80;0.43;;;16.20;71.70;;;;;;5056095;28;20052;-72
2023/03/26 02:56:26;;;;;;;0.80;0.60;;;16.10;71.60;;;;;;5071313;28;20098;-72
2023/03/26 02:58:52;;;;;;;2.63;0.82;;;16.10;71.60;;;;;;5088160;28;20021;-72
2023/03/26 03:01:17;;;;;;;1.67;0.63;;;16.20;71.60;;;;;;5056189;28;20481;-72
2023/03/26 03:03:43;;;;;;;1.50;0.65;;;16.10;71.60;;;;;;5055770;28;20029;-72
2023/03/26 03:06:09;;;;;;;2.17;0.80;;;16.10;71.70;;;;;;5088258;28;20047;-71
2023/03/26 03:08:34;;;;;;;2.75;0.70;;;16.10;71.70;;;;;;5071147;28;20404;-72
2023/03/26 03:11:03;;;;;;;1.80;0.57;;;16.10;71.60;;;;;;5055814;28;20021;-72
2023/03/26 03:13:28;;;;;;;0.77;0.57;;;16.10;71.70;;;;;;5051541;28;20481;-72
2023/03/26 03:15:54;;;;;;;2.50;0.70;;;16.10;71.60;;;;;;5067796;28;20039;-72
2023/03/26 03:18:20;;;;;;;2.75;0.80;;;16.10;71.70;;;;;;5051187;28;20112;-72
2023/03/26 03:20:46;;;;;;;1.13;0.52;;;16.10;71.60;;;;;;5067697;28;20100;-71
2023/03/26 03:23:13;;;;;;;1.88;0.50;;;16.10;72.60;;;;;;5035542;28;20056;-72
2023/03/26 03:25:39;;;;;;;1.52;0.47;;;16.10;71.60;;;;;;5050465;28;20025;-72
2023/03/26 03:28:05;;;;;;;1.55;0.50;;;16.10;71.60;;;;;;5050559;28;20418;-72
2023/03/26 03:30:31;;;;;;;1.33;0.38;;;16.10;71.60;;;;;;5067473;28;20022;-72
2023/03/26 03:32:57;;;;;;;1.52;0.65;;;16.10;71.60;;;;;;5067525;28;20061;-72
2023/03/26 03:35:23;;;;;;;2.08;0.60;;;16.10;71.60;;;;;;5035349;28;20105;-72
2023/03/26 03:37:49;;;;;;;1.00;0.40;;;16.10;71.60;;;;;;5035259;28;20519;-72
2023/03/26 03:40:15;;;;;;;1.50;0.60;;;16.10;71.60;;;;;;5067268;28;20101;-72
2023/03/26 03:42:41;;;;;;;1.38;0.60;;;16.10;71.60;;;;;;5067211;28;20052;-72
2023/03/26 03:45:07;;;;;;;1.35;0.50;;;16.10;71.70;;;;;;5035269;28;20055;-72
2023/03/26 03:47:32;;;;;;;1.48;0.50;;;16.10;71.60;;;;;;5067217;28;20026;-72
2023/03/26 03:49:59;;;;;;;1.02;0.65;;;16.10;71.70;;;;;;5053226;28;20031;-72
2023/03/26 03:52:26;;;;;;;1.55;0.60;;;16.10;71.70;;;;;;5053648;28;20560;-72
2023/03/26 03:54:51;;;;;;;0.88;0.50;;;16.10;71.70;;;;;;5053859;28;20024;-72
2023/03/26 03:57:17;;;;;;;2.03;0.65;;;16.10;71.70;;;;;;5054633;28;20021;-72
2023/03/26 03:59:43;;;;;;;1.20;0.47;;;16.10;71.70;;;;;;5053463;28;20025;-72
2023/03/26 04:02:09;;;;;;;1.08;0.50;;;16.10;71.70;;;;;;5053800;28;20032;-72
2023/03/26 04:04:36;;;;;;;0.82;0.35;;;16.10;71.70;;;;;;5054667;28;20024;-72
2023/03/26 04:07:03;;;;;;;0.75;0.50;;;16.10;71.80;;;;;;5054798;28;20485;-72
2023/03/26 04:09:28;;;;;;;1.23;0.60;;;16.00;71.60;;;;;;5053625;28;20471;-72
2023/03/26 04:11:54;;;;;;;1.25;0.52;;;16.10;71.70;;;;;;5053222;28;20112;-72
2023/03/26 04:14:19;;;;;;;1.05;0.50;;;16.00;71.60;;;;;;5042600;28;20108;-72
2023/03/26 04:16:47;;;;;;;1.48;0.65;;;16.10;71.70;;;;;;5066698;28;20112;-72
2023/03/26 04:19:13;;;;;;;1.08;0.47;;;16.00;71.70;;;;;;5034588;28;20017;-72
2023/03/26 04:21:41;;;;;;;0.80;0.40;;;16.00;71.70;;;;;;5034554;28;20018;-72
2023/03/26 04:24:07;;;;;;;1.50;0.63;;;16.00;71.70;;;;;;5034437;28;20026;-72
2023/03/26 04:26:34;;;;;;;1.15;0.50;;;16.00;71.70;;;;;;5066286;28;20029;-72
2023/03/26 04:29:01;;;;;;;1.90;0.55;;;16.00;71.70;;;;;;5066217;28;20033;-72
2023/03/26 04:31:29;;;;;;;0.93;0.50;;;16.00;71.70;;;;;;5066172;28;20072;-72
2023/03/26 04:33:58;;;;;;;0.90;0.40;;;16.00;71.70;;;;;;5032951;28;20378;-72
2023/03/26 04:36:28;;;;;;;0.88;0.50;;;16.00;71.70;;;;;;5049141;28;20379;-72
2023/03/26 04:38:54;;;;;;;0.70;0.30;;;16.00;71.70;;;;;;5049370;28;20428;-72
2023/03/26 04:41:21;;;;;;;1.67;0.40;;;16.00;71.70;;;;;;5049536;28;20018;-72
2023/03/26 04:43:49;;;;;;;1.20;0.47;;;16.00;71.70;;;;;;5065727;28;20021;-72
2023/03/26 04:46:20;;;;;;;0.98;0.43;;;16.00;71.70;;;;;;5065551;28;20025;-72
2023/03/26 04:48:47;;;;;;;1.73;0.60;;;16.00;71.70;;;;;;5075665;28;20037;-72
2023/03/26 04:51:16;;;;;;;1.05;0.50;;;16.00;71.70;;;;;;5052470;28;20483;-72
2023/03/26 04:53:51;;;;;;;1.23;0.60;;;16.00;71.70;;;;;;5052495;28;20028;-72
2023/03/26 04:56:38;;;;;;;0.50;0.30;;;16.00;71.60;;;;;;5052606;28;20425;-72
2023/03/26 04:59:04;;;;;;;1.20;0.57;;;16.00;71.70;;;;;;5053766;28;20500;-72
2023/03/26 05:01:29;;;;;;;1.55;0.68;;;16.00;71.50;;;;;;5051736;28;20025;-72
2023/03/26 05:03:57;;;;;;;1.33;0.50;;;16.00;71.60;;;;;;5053470;28;20029;-72
2023/03/26 05:06:24;;;;;;;1.67;0.45;;;16.00;71.60;;;;;;5052560;28;20104;-72
2023/03/26 05:08:50;;;;;;;1.35;0.40;;;16.00;71.60;;;;;;5052074;28;20429;-72
2023/03/26 05:11:16;;;;;;;1.70;0.38;;;16.00;71.60;;;;;;5053343;28;20396;-72
2023/03/26 05:13:41;;;;;;;2.20;0.47;;;16.00;71.60;;;;;;5053262;28;20021;-72
2023/03/26 05:16:09;;;;;;;1.38;0.40;;;16.00;71.60;;;;;;5052221;28;20025;-72
2023/03/26 05:18:34;;;;;;;1.75;0.40;;;16.00;71.60;;;;;;5052053;28;20096;-72
2023/03/26 05:21:00;;;;;;;0.73;0.40;;;16.00;71.60;;;;;;5052225;28;20100;-72
2023/03/26 05:23:26;;;;;;;1.13;0.47;;;16.00;71.60;;;;;;5051891;28;20029;-72
2023/03/26 05:25:51;;;;;;;1.60;0.43;;;16.00;71.60;;;;;;5051951;28;20028;-72
2023/03/26 05:28:19;;;;;;;1.55;0.60;;;16.00;71.60;;;;;;5052075;28;20409;-72
2023/03/26 05:30:45;;;;;;;1.30;0.40;;;16.00;71.60;;;;;;5051790;28;20485;-72
2023/03/26 05:33:11;;;;;;;1.27;0.75;;;16.00;71.60;;;;;;5052036;28;20500;-72
2023/03/26 05:35:36;;;;;;;0.90;0.40;;;16.00;71.60;;;;;;5051745;28;20036;-72
2023/03/26 05:38:02;;;;;;;0.93;0.30;;;16.00;71.60;;;;;;5051578;28;20028;-72
2023/03/26 05:40:28;;;;;;;1.00;0.70;;;15.90;71.60;;;;;;5052987;28;20524;-72
2023/03/26 05:42:53;;;;;;;1.45;0.45;;;15.90;71.50;;;;;;5051649;28;20615;-72
2023/03/26 05:45:21;;;;;;;1.20;0.50;;;15.90;71.60;;;;;;5052878;28;20459;-72
2023/03/26 05:47:48;;;;;;;0.65;0.40;;;16.00;71.60;;;;;;5051555;28;20029;-72
2023/03/26 05:50:14;;;;;;;1.83;0.40;;;15.90;72.50;;;;;;5084706;28;20021;-72
2023/03/26 05:52:39;;;;;;;1.42;0.47;;;15.90;71.50;;;;;;5052462;28;20067;-72
2023/03/26 05:55:06;;;;;;;1.08;0.45;;;15.90;71.50;;;;;;5084841;28;20032;-72
2023/03/26 05:57:34;;;;;;;0.90;0.40;;;15.90;71.50;;;;;;5068080;28;20021;-72
2023/03/26 06:00:00;;;;;;;0.90;0.40;;;15.90;71.50;;;;;;5084513;28;20048;-72
2023/03/26 06:02:25;;;;;;;1.60;0.75;;;15.90;71.50;;;;;;5068153;28;20082;-72
2023/03/26 06:04:51;;;;;;;2.00;0.60;;;15.90;71.50;;;;;;5068073;28;20033;-72
2023/03/26 06:07:17;;;;;;;1.05;0.50;;;15.90;71.50;;;;;;5052144;28;20029;-72
2023/03/26 06:09:43;;;;;;;0.90;0.43;;;15.90;71.50;;;;;;5067938;28;20059;-72
2023/03/26 06:12:09;;;;;;;1.58;0.50;;;15.90;71.50;;;;;;5084820;28;20025;-72
2023/03/26 06:14:35;;;;;;;1.35;0.32;;;15.90;71.50;;;;;;5071384;28;20486;-72
2023/03/26 06:17:01;;;;;;;1.38;0.30;;;15.90;71.50;;;;;;5047866;28;20025;-72
2023/03/26 06:19:26;;;;;;;0.43;0.25;;;15.90;71.50;;;;;;5064687;28;20034;-72
2023/03/26 06:21:52;;;;;;;0.80;0.40;;;15.90;71.50;;;;;;5064376;28;20021;-72
2023/03/26 06:24:18;;;;;;;2.35;0.60;;;15.90;71.50;;;;;;5064499;28;20469;-72
2023/03/26 06:26:45;;;;;;;0.70;0.35;;;15.90;71.50;;;;;;5032509;28;20026;-72
2023/03/26 06:29:11;;;;;;;0.70;0.30;;;15.90;71.50;;;;;;5064309;28;20196;-72
2023/03/26 06:31:37;;;;;;;0.50;0.30;;;15.90;71.60;;;;;;5030958;28;20429;-72
2023/03/26 06:34:03;;;;;;;0.60;0.40;;;15.90;71.50;;;;;;5064629;28;20038;-72
2023/03/26 06:36:28;;;;;;;1.25;0.60;;;15.90;71.50;;;;;;5032105;28;20037;-72
2023/03/26 06:38:54;;;;;;;0.82;0.32;;;15.90;71.50;;;;;;5064422;28;20087;-72
2023/03/26 06:41:20;;;;;;;1.58;0.40;;;15.80;71.50;;;;;;5032261;28;20025;-72
2023/03/26 06:43:45;;;;;;;0.70;0.30;;;15.90;71.50;;;;;;5064228;28;20120;-72
2023/03/26 06:46:12;;;;;;;0.95;0.35;;;15.80;71.50;;;;;;5047651;28;20108;-72
2023/03/26 06:48:38;;;;;;;1.77;0.52;;;15.80;71.50;;;;;;5073176;28;20029;-72
2023/03/26 06:51:04;;;;;;;0.57;0.30;;;15.80;71.60;;;;;;5050609;28;20029;-72
2023/03/26 06:53:30;;;;;;;1.08;0.38;;;15.80;71.50;;;;;;5051030;28;20044;-72
2023/03/26 06:55:55;;;;;;;1.25;0.68;;;15.80;71.60;;;;;;5050651;28;20039;-72
2023/03/26 06:58:21;;;;;;;2.05;0.55;;;15.80;71.60;;;;;;5050980;28;20370;-72
2023/03/26 07:00:47;;;;;;;1.00;0.38;;;15.80;71.60;;;;;;5050856;28;20496;-72
2023/03/26 07:03:12;;;;;;;1.02;0.43;;;15.80;71.50;;;;;;5034335;28;20469;-72
2023/03/26 07:05:40;;;;;;;0.88;0.35;;;15.80;71.60;;;;;;5050679;28;20025;-72
2023/03/26 07:08:05;;;;;;;2.38;0.47;;;15.90;71.60;;;;;;5050919;28;20021;-72
2023/03/26 07:10:31;;;;;;;0.73;0.30;;;15.90;72.20;;;;;;5050679;28;20397;-72
2023/03/26 07:12:57;;;;;;;0.70;0.40;;;15.80;71.60;;;;;;5052046;28;20066;-72
2023/03/26 07:15:23;;;;;;;0.75;0.30;;;15.80;71.60;;;;;;5051755;28;20103;-72
2023/03/26 07:17:49;;;;;;;1.15;0.47;;;15.80;71.60;;;;;;5050785;28;20025;-72
2023/03/26 07:20:15;;;;;;;1.10;0.68;;;15.80;71.60;;;;;;5051850;28;20024;-71
2023/03/26 07:22:41;;;;;;;0.95;0.38;;;15.80;71.60;;;;;;5051841;28;20021;-72
2023/03/26 07:25:07;;;;;;;0.65;0.35;;;15.80;71.60;;;;;;5051599;28;20028;-72
2023/03/26 07:27:33;;;;;;;0.82;0.40;;;15.80;71.60;;;;;;5054587;28;20039;-72
2023/03/26 07:30:02;;;;;;;1.30;0.40;;;15.80;71.60;;;;;;5055472;28;20481;-72
2023/03/26 07:32:45;;;;;;;1.33;0.50;;;15.80;71.60;;;;;;5054535;28;20032;-72
2023/03/26 07:35:36;;;;;;;0.32;0.20;;;15.80;71.60;;;;;;5054083;28;20021;-72
2023/03/26 07:38:31;;;;;;;0.57;0.30;;;15.80;71.60;;;;;;5054203;28;20029;-72
2023/03/26 07:41:19;;;;;;;0.47;0.28;;;15.80;71.60;;;;;;5054288;28;20017;-72
2023/03/26 07:44:12;;;;;;;0.70;0.28;;;15.80;71.60;;;;;;5055224;28;20035;-72
2023/03/26 07:46:38;;;;;;;;;;;15.80;71.60;;;;;;5055628;28;20025;-72
2023/03/26 07:49:04;;;;;;;1.45;0.43;;;15.80;71.60;;;;;;5054806;28;19908;-72
2023/03/26 07:51:30;;;;;;;1.65;0.50;;;15.80;71.60;;;;;;5053826;28;20051;-72
2023/03/26 07:53:58;;;;;;;0.65;0.25;;;15.80;71.60;;;;;;5053820;28;20033;-72
2023/03/26 07:56:49;;;;;;;0.73;0.30;;;15.80;71.60;;;;;;5053972;28;20047;-71
2023/03/26 07:59:41;;;;;;;0.70;0.40;;;15.80;71.60;;;;;;5055157;28;20028;-72
2023/03/26 08:02:37;;;;;;;1.10;0.40;;;15.80;71.60;;;;;;5053513;28;20025;-72
2023/03/26 08:05:34;;;;;;;0.50;0.30;;;15.80;71.60;;;;;;5054809;28;20066;-72
2023/03/26 08:08:15;;;;;;;0.52;0.30;;;15.80;71.60;;;;;;5053627;28;20021;-72
2023/03/26 08:10:41;;;;;;;0.63;0.60;;;15.80;71.70;;;;;;5053616;28;20162;-72
2023/03/26 08:13:45;;;;;;;1.92;0.45;;;15.70;71.70;;;;;;5053740;28;20108;-72
2023/03/26 08:16:24;;;;;;;0.15;0.10;;;15.70;71.60;;;;;;5034802;28;20152;-72
2023/03/26 08:18:53;;;;;;;0.77;0.28;;;15.70;71.70;;;;;;5064369;28;20028;-72
2023/03/26 08:21:38;;;;;;;0.25;0.20;;;15.70;71.70;;;;;;5034737;28;20025;-72
2023/03/26 08:24:31;;;;;;;0.73;0.60;;;15.70;71.70;;;;;;5066620;28;20417;-72
2023/03/26 08:27:00;;;;;;;0.10;0.10;;;15.70;71.70;;;;;;5046843;28;20271;-72
2023/03/26 08:29:50;;;;;;;0.60;0.30;;;15.80;71.70;;;;;;5034468;28;20678;-72
2023/03/26 08:32:17;;;;;;;0.80;0.32;;;15.70;71.70;;;;;;5066586;28;20025;-72
2023/03/26 08:34:43;;;;;;;0.47;0.30;;;15.70;71.70;;;;;;5049774;28;20507;-72
2023/03/26 08:37:08;;;;;;;0.70;0.30;;;15.70;71.70;;;;;;5049391;28;20104;-72
2023/03/26 08:39:36;;;;;;;0.45;0.28;;;15.70;71.70;;;;;;5034533;28;20517;-72
2023/03/26 08:42:17;;;;;;;0.80;0.40;;;15.70;71.70;;;;;;5065957;28;20022;-71
2023/03/26 08:45:16;;;;;;;0.93;0.35;;;15.70;71.70;;;;;;5034314;28;20022;-72
2023/03/26 08:48:07;;;;;;;0.75;0.43;;;15.70;71.70;;;;;;5062197;28;20049;-72
2023/03/26 08:51:00;;;;;;;0.88;0.57;;;15.70;71.70;;;;;;5053080;28;20573;-71
2023/03/26 08:53:48;;;;;;;;;;;15.70;71.70;;;;;;5053061;28;20131;-72
2023/03/26 08:56:17;;;;;;;1.45;0.60;;;15.70;71.70;;;;;;5052676;28;19962;-71
2023/03/26 08:59:07;;;;;;;1.40;0.43;;;15.70;71.80;;;;;;5053818;28;20534;-71
2023/03/26 09:01:45;;;;;;;1.50;0.40;;;15.70;71.80;;;;;;5052550;28;20027;-72
2023/03/26 09:04:34;;;;;;;0.40;0.30;;;15.70;71.80;;;;;;5053865;28;20029;-72
2023/03/26 09:07:06;;;;;;;1.05;0.60;;;15.70;71.80;;;;;;5052523;28;20025;-72
2023/03/26 09:09:48;;;;;;;1.02;0.60;;;15.70;71.80;;;;;;5053747;28;20064;-72
2023/03/26 09:12:35;;;;;;;0.47;0.30;;;15.70;71.80;;;;;;5052604;28;20439;-72
2023/03/26 09:15:31;;;;;;;0.80;0.30;;;15.70;71.80;;;;;;5036868;28;20021;-72
2023/03/26 09:18:34;;;;;;;0.50;0.30;;;15.70;71.80;;;;;;5033417;28;20039;-72
2023/03/26 09:21:37;;;;;;;0.60;0.30;;;15.70;71.80;;;;;;5032520;28;20397;-71
2023/03/26 09:24:02;;;;;;;0.80;0.40;;;15.70;71.80;;;;;;5033460;28;20041;-71
2023/03/26 09:27:06;;;;;;;1.35;0.40;;;15.70;71.80;;;;;;5033326;28;20021;-71
2023/03/26 09:29:31;;;;;;;;;;;15.70;71.80;;;;;;5046097;28;20022;-72
2023/03/26 09:32:16;;;;;;;0.63;0.30;;;15.70;71.80;;;;;;5033361;28;19916;-72
2023/03/26 09:35:31;;;;;;;0.45;0.30;;;15.60;71.80;;;;;;5065429;28;20013;-72
2023/03/26 09:37:58;;;;;;;0.80;0.30;;;15.70;71.80;;;;;;4991219;28;20045;-72
2023/03/26 09:40:41;;;;;;;0.22;0.20;;;15.70;71.90;;;;;;5007862;28;20043;-72
2023/03/26 09:43:22;;;;;;;0.20;0.20;;;15.70;71.80;;;;;;5007408;28;20490;-72
2023/03/26 09:46:06;;;;;;;0.68;0.20;;;15.70;71.90;;;;;;5007286;28;20085;-72
2023/03/26 09:48:56;;;;;;;0.82;0.25;;;15.70;72.90;;;;;;4999106;28;20042;-72
2023/03/26 09:51:55;;;;;;;0.70;0.30;;;15.60;71.80;;;;;;4996570;28;20058;-72
2023/03/26 09:54:24;;;;;;;0.50;0.30;;;15.70;71.90;;;;;;5011276;28;20033;-72
2023/03/26 09:57:19;;;;;;;1.58;0.50;;;15.70;71.80;;;;;;4994435;28;20534;-72
2023/03/26 10:00:03;;;;;;;0.63;0.30;;;15.70;71.80;;;;;;5010761;28;20022;-72
2023/03/26 10:02:32;;;;;;;0.50;0.20;;;15.60;71.80;;;;;;4994636;28;20141;-72
2023/03/26 10:05:15;;;;;;;1.25;0.28;;;15.60;71.80;;;;;;5011052;28;20026;-72
2023/03/26 10:07:47;;;;;;;0.73;0.35;;;15.70;71.80;;;;;;5010973;28;20030;-71
2023/03/26 10:10:22;;;;;;;1.23;0.43;;;15.60;71.80;;;;;;5010820;28;20144;-72
2023/03/26 10:13:08;;;;;;;1.20;0.50;;;15.60;71.70;;;;;;5010646;28;20026;-72
2023/03/26 10:15:47;;;;;;;1.30;0.50;;;15.60;71.80;;;;;;5013969;28;20048;-72
2023/03/26 10:18:40;;;;;;;0.90;0.30;;;15.60;71.80;;;;;;5031555;28;20026;-72
2023/03/26 10:21:24;;;;;;;0.50;0.30;;;15.70;71.80;;;;;;5032454;28;20029;-72
2023/03/26 10:23:55;;;;;;;0.82;0.30;;;15.60;71.80;;;;;;5032405;28;20029;-72
2023/03/26 10:26:21;;;;;;;1.03;0.40;;;15.60;71.80;;;;;;5032361;28;20032;-72
2023/03/26 10:28:52;;;;;;;2.10;0.40;;;15.70;71.80;;;;;;5032369;28;20021;-72
2023/03/26 10:31:27;;;;;;;1.48;0.43;;;15.60;71.80;;;;;;5032326;28;20109;-72
2023/03/26 10:34:14;;;;;;;1.27;0.32;;;15.60;71.80;;;;;;5032271;28;20109;-72
2023/03/26 10:37:08;;;;;;;1.30;0.50;;;15.60;71.80;;;;;;5032271;28;20030;-72
2023/03/26 10:39:45;;;;;;;0.80;0.30;;;15.60;71.80;;;;;;5031226;28;20490;-72
2023/03/26 10:42:42;;;;;;;1.30;0.43;;;15.60;71.80;;;;;;5030915;28;20386;-72
2023/03/26 10:45:16;;;;;;;1.15;0.38;;;15.60;71.70;;;;;;5032406;28;20017;-72
2023/03/26 10:48:00;;;;;;;1.35;0.60;;;15.60;71.80;;;;;;5033523;28;20021;-72
2023/03/26 10:50:40;;;;;;;1.38;0.47;;;15.60;71.80;;;;;;5052042;28;20017;-72
2023/03/26 10:53:06;;;;;;;1.40;0.55;;;15.60;71.80;;;;;;5050793;28;20045;-72
2023/03/26 10:55:45;;;;;;;1.30;0.32;;;15.60;71.90;;;;;;5052244;28;20025;-71
2023/03/26 10:58:23;;;;;;;1.05;0.32;;;15.60;71.90;;;;;;5050716;28;20021;-72
2023/03/26 11:00:56;;;;;;;1.15;0.50;;;15.60;71.80;;;;;;5054283;28;20021;-72
2023/03/26 11:03:39;;;;;;;2.35;0.50;;;15.60;71.80;;;;;;5054851;28;20021;-72
2023/03/26 11:06:17;;;;;;;;;;;15.60;71.80;;;;;;5056510;28;20554;-72
2023/03/26 11:09:06;;;;;;;2.25;0.60;;;15.60;71.70;;;;;;5056018;28;19991;-72
2023/03/26 11:11:56;;;;;;;0.70;0.28;;;15.60;71.80;;;;;;5055161;28;20045;-71
2023/03/26 11:14:40;;;;;;;0.65;0.40;;;15.60;71.90;;;;;;5026994;28;20022;-72
2023/03/26 11:17:19;;;;;;;1.70;0.50;;;15.60;71.80;;;;;;5067825;28;20112;-72
2023/03/26 11:20:06;;;;;;;0.70;0.35;;;15.60;71.80;;;;;;5067849;28;20093;-71
2023/03/26 11:22:43;;;;;;;0.57;0.28;;;15.60;71.80;;;;;;5067810;28;20056;-72
2023/03/26 11:25:23;;;;;;;0.98;0.50;;;15.60;71.80;;;;;;5067453;28;20021;-72
2023/03/26 11:28:15;;;;;;;0.73;0.32;;;15.60;71.80;;;;;;5050153;28;20013;-72
2023/03/26 11:30:54;;;;;;;1.15;0.40;;;15.60;71.80;;;;;;5067526;28;20014;-72
2023/03/26 11:33:41;;;;;;;1.77;0.40;;;15.60;71.80;;;;;;5067498;28;20036;-72
2023/03/26 11:36:09;;;;;;;1.70;0.60;;;15.60;71.80;;;;;;5061568;28;20103;-72
2023/03/26 11:38:40;;;;;;;0.90;0.40;;;15.60;71.80;;;;;;5050627;28;20132;-72
2023/03/26 11:41:17;;;;;;;1.42;0.47;;;15.60;71.80;;;;;;5050271;28;20494;-72
2023/03/26 11:43:44;;;;;;;2.13;0.50;;;15.60;71.80;;;;;;5050254;28;20021;-71
2023/03/26 11:46:11;;;;;;;0.70;0.35;;;15.60;71.80;;;;;;5050569;28;20048;-72
2023/03/26 11:48:45;;;;;;;0.90;0.45;;;15.60;71.80;;;;;;5059434;28;20489;-72
2023/03/26 11:51:33;;;;;;;0.77;0.52;;;15.60;71.80;;;;;;5070325;28;20048;-72
2023/03/26 11:54:03;;;;;;;3.10;0.82;;;15.60;71.80;;;;;;5086363;28;20032;-72
2023/03/26 11:57:07;;;;;;;0.85;0.40;;;15.60;71.80;;;;;;5070225;28;20028;-72
2023/03/26 11:59:40;;;;;;;0.80;0.47;;;15.60;71.80;;;;;;5087395;28;20017;-72
2023/03/26 12:02:08;;;;;;;1.10;0.40;;;15.60;71.80;;;;;;5087215;28;20018;-72
2023/03/26 12:04:35;;;;;;;1.15;0.30;;;15.60;71.80;;;;;;5054868;28;20021;-72
2023/03/26 12:07:17;;;;;;;2.40;0.50;;;15.60;71.80;;;;;;5053579;28;20547;-72
2023/03/26 12:09:50;;;;;;;0.93;0.50;;;15.60;71.90;;;;;;5068698;28;20116;-71
2023/03/26 12:12:16;;;;;;;2.47;0.52;;;15.60;71.90;;;;;;5086524;28;20406;-71
2023/03/26 12:14:42;;;;;;;0.98;0.50;;;15.60;71.80;;;;;;5069978;28;20033;-72
2023/03/26 12:17:13;;;;;;;0.80;0.30;;;15.60;71.80;;;;;;5053346;28;20031;-72
2023/03/26 12:19:43;;;;;;;1.50;0.40;;;15.60;71.80;;;;;;5053541;28;20036;-72
2023/03/26 12:22:28;;;;;;;0.88;0.50;;;15.60;71.80;;;;;;5053340;28;20044;-71
2023/03/26 12:25:16;;;;;;;1.20;0.52;;;15.60;71.90;;;;;;5036431;28;20036;-71
2023/03/26 12:27:44;;;;;;;0.43;0.30;;;15.60;71.80;;;;;;5053439;28;20028;-72
2023/03/26 12:30:10;;;;;;;0.80;0.28;;;15.60;71.90;;;;;;5053299;28;20033;-72
2023/03/26 12:32:43;;;;;;;0.95;0.30;;;15.60;71.80;;;;;;5054446;28;20036;-72
2023/03/26 12:35:25;;;;;;;0.52;0.30;;;15.60;71.80;;;;;;5054365;28;20025;-72
2023/03/26 12:37:51;;;;;;;1.65;0.57;;;15.60;71.70;;;;;;5053042;28;20060;-71
2023/03/26 12:40:29;;;;;;;1.33;0.45;;;15.60;71.80;;;;;;5036477;28;20045;-71
2023/03/26 12:42:57;;;;;;;1.25;0.40;;;15.60;71.70;;;;;;5052998;28;20493;-71
2023/03/26 12:45:31;;;;;;;1.30;0.45;;;15.50;71.70;;;;;;5052848;28;20504;-72
2023/03/26 12:47:57;;;;;;;1.52;0.47;;;15.60;71.80;;;;;;5052945;28;20027;-72
2023/03/26 12:50:28;;;;;;;0.70;0.50;;;15.60;71.80;;;;;;5069263;28;20424;-71
2023/03/26 12:53:02;;;;;;;1.10;0.40;;;15.60;71.80;;;;;;5068791;28;20080;-71
2023/03/26 12:55:56;;;;;;;1.13;0.50;;;15.60;71.80;;;;;;5053953;28;20021;-72
2023/03/26 12:58:26;;;;;;;;;;;15.60;71.80;;;;;;5054368;28;20025;-72
2023/03/26 13:01:01;;;;;;;0.80;0.40;;;15.50;71.80;;;;;;5052746;28;19958;-72
2023/03/26 13:03:56;;;;;;;1.20;0.32;;;15.50;71.70;;;;;;5085448;28;20017;-72
2023/03/26 13:06:28;;;;;;;1.98;0.52;;;15.60;71.70;;;;;;5053774;28;20025;-72
2023/03/26 13:09:21;;;;;;;1.42;0.40;;;15.60;71.70;;;;;;5068804;28;20020;-72
2023/03/26 13:12:18;;;;;;;1.48;0.40;;;15.60;71.70;;;;;;5080566;28;20021;-72
2023/03/26 13:14:59;;;;;;;1.50;0.57;;;15.50;71.70;;;;;;5071769;28;20108;-71
2023/03/26 13:17:34;;;;;;;1.33;0.70;;;15.50;71.70;;;;;;5033650;28;20029;-71